Mohe, China
Current Conditions -  °F | °C
As of 4:30 PM on Monday 24 Nov 2014 (Local Time) from UHBB Reporting Station
Clear Clear  
Wind Chill:   Ceiling: Unl
Heat Index: 14°   Visibility: 6mi
Dew Point:   Wind: 9mph
Humidity: 79%   Direction: 180°S
Pressure: 30.24"   Gusts: NA
Location:  53.13°N, 122.52°E
Report Text: UHBB 240830Z 18004MPS 140V220 CAVOK M10/M13 Q1024 NOSIG RMKQFE750/1000 36810350
Loading
Personal Weather Stations






























Interactive Weather Map New forecast layout! Learn more

10-Day Weather Forecast

Advertisements
Track Severe Weather on mobile